JBU118 KJFK-KBOS
Flight info
| Callsign | JBU118 |
|---|---|
| Flight time | N/A |
| Altitude | 21000 |
| Route | DCT MERIT ROBUC3 |
| Aircraft | A320/M-SDE3FGHIRWY/LB1 |
Departure
| Time | N/A |
|---|---|
| Airport | John F. Kennedy International Airport (KJFK) |
Arrival
| Time | 2026-05-04 17:22 |
|---|---|
| Airport | Boston Logan International Airport (KBOS) |
| Time | Latitude | Longitude | Altitude | Speed | Heading |
|---|---|---|---|---|---|
| 2026-05-04 17:15 | 42.62339 | -70.84961 | 4404 ft | 164 kts | 226° |
| 2026-05-04 17:16 | 42.60607 | -70.87167 | 4185 ft | 175 kts | 226° |
| 2026-05-04 17:16 | 42.57762 | -70.90192 | 3823 ft | 181 kts | 207° |
| 2026-05-04 17:17 | 42.56553 | -70.90778 | 3357 ft | 187 kts | 206° |
| 2026-05-04 17:17 | 42.53225 | -70.92384 | 2999 ft | 178 kts | 206° |
| 2026-05-04 17:18 | 42.52119 | -70.92923 | 2950 ft | 178 kts | 206° |
| 2026-05-04 17:18 | 42.49803 | -70.94049 | 2586 ft | 176 kts | 205° |
| 2026-05-04 17:19 | 42.47584 | -70.95125 | 2141 ft | 158 kts | 206° |
| 2026-05-04 17:19 | 42.45629 | -70.96076 | 1767 ft | 150 kts | 206° |
| 2026-05-04 17:20 | 42.43697 | -70.97014 | 1378 ft | 145 kts | 206° |
| 2026-05-04 17:20 | 42.41776 | -70.97947 | 982 ft | 149 kts | 205° |
| 2026-05-04 17:20 | 42.40926 | -70.98570 | 780 ft | 137 kts | 219° |
| 2026-05-04 17:21 | 42.39276 | -70.99763 | 385 ft | 138 kts | 205° |
| 2026-05-04 17:21 | 42.37527 | -71.00600 | 51 ft | 129 kts | 207° |
| 2026-05-04 17:22 | 42.36783 | -71.00965 | 29 ft | 83 kts | 198° |
| 2026-05-04 17:22 | 42.36492 | -71.01099 | 27 ft | 24 kts | 201° |
| 2026-05-04 17:23 | 42.36340 | -71.01322 | 27 ft | 8 kts | 300° |
| 2026-05-04 17:23 | 42.36377 | -71.01396 | 26 ft | 10 kts | 327° |
| 2026-05-04 17:23 | 42.36513 | -71.01339 | 28 ft | 12 kts | 26° |
| 2026-05-04 17:24 | 42.36582 | -71.01296 | 27 ft | 12 kts | 21° |
| 2026-05-04 17:24 | 42.36829 | -71.01323 | 26 ft | 15 kts | 315° |
| 2026-05-04 17:25 | 42.36912 | -71.01434 | 26 ft | 18 kts | 315° |
| 2026-05-04 17:25 | 42.36964 | -71.01606 | 27 ft | 11 kts | 213° |
| 2026-05-04 17:26 | 42.36849 | -71.01696 | 28 ft | 8 kts | 199° |
| 2026-05-04 17:26 | 42.36813 | -71.01765 | 26 ft | 2 kts | 242° |
| 2026-05-04 17:27 | 42.36811 | -71.01769 | 29 ft | 0 kts | 241° |